05 fevereiro 2014

Mau Tempo

Hoje os METAR de várias ilhas passaram os 50 nós durante várias horas, obrigando ao cancelamento de muitos voos. Abaixo deixo o pior METAR de cada ilha, com destaque para o Corvo e Graciosa, onde andava um EH devido a uma evacuação por volta da hora do pior METAR registado nessa ilha...

LPCR 051100Z 27051G85KT 230V360 3000 BR SCT005 BKN010 11/09 Q0991

LPGR 051300Z 26042G73KT 9999 SCT014 14/09 Q0996

LPLA 051220Z 23035G55KT 3000 SHRA SCT013 FEW018TCU BKN020 16/15 Q0996

LPPI 051300Z 26040KT 220V300 9999 -SHRA FEW012 SCT020 14/08 Q0999 RMK WIND RWY27 26042G55KT 220V300

LPHR 051330Z 28039G54KT 7000 BKN016 SCT030 13/09 Q0998

LPSJ 051300Z 27029G51KT 9000 VCSH BKN015 15/10 Q0998 RMK WIND RWY13 29021G42KT RWY31 28032G46KT

LPFL 051300Z 32026G49KT 260V360 9999 VCSH BKN017 FEW018CB 11/07 Q0999 RMK WIND RWY36 32025G39KT 290V360 POS MID 31026G43KT 270V350 T/DP FM BACK-UP

LPPD 051730Z 27037G48KT 9999 SCT018 14/09 Q1001

LPAZ 051500Z 23029G43KT 6000 -RA SCT005 BKN013 17/15 Q1003 RMK BACK UP WIND

2 comentários:

Luis disse...

Olá Rui quais são os ventos que provocam nevoeiro no Pico? O ILS ainda não está operacional para essas situação, pois ainda não cortaram as árvores?

Luis disse...

Então Rui os metars hoje devem estar a ter recordes de vento!